發表時間 文章標題 人氣 留言
2012-08-21 【完美組合】SanDisk Extreme SSD 240GB (15108) (0)
2012-06-25 台北多媒體大展~【火力全開】SONY夏季生力軍-HX200V & NEX-F3簡單玩 (13514) (0)
2012-05-06 【戒菸戰鬥】我與戒必適十天的相處... (62541) (10)
2012-02-24 【再度進化】PowerDVD 12改版問世 (16192) (1)
2011-11-10 【邁向3D剪輯】國產之光~威力導演10 (6916) (0)
2011-09-26 【打造雲端】splashtop Whiteboard for iPad版 (24665) (0)
2011-09-06 【最小平板】acer ICONIA SMART上市記者會 (6163) (0)
2011-06-06 【HTPC必備】PowerDVD 11旗艦版影音播放軟體 (5730) (0)
2011-04-24 【極速讀寫】廣穎電通Silicon Power 600X CF (3312) (0)
2011-01-17 【頂級享受】Plantronics Savor M1100藍牙耳機 (42590) (3)
2009-11-25 【宅魂燃燒】Casio EX-G1帥氣防水機 (4972) (0)
2009-11-25 【內外雙修】acer S243HL 24吋LED背光螢幕 (13273) (0)
2009-10-18 【開箱】我的第一台蘋果-Apple iBook G4 (7046) (8)
2009-09-24 【大推】去你的Powerpoint Report!!!!!! (799) (0)
2009-09-18 【超幹】ELECOM Scope Node美型滑鼠 (8740) (5)
2009-09-09 【Canon梭惹】Canon IXUS 200 IS完美觸控機 (20278) (32)
2009-08-25 【大眼魂!!】Canon S90 IS大光圈上身!! (73112) (43)
2009-08-16 【夏日炎炎】電腦溫度壓制~CM V8 & HR-05/IFX (3602) (3)
2009-08-12 【好康報報】EPSON C9200N推出免費租賃 (763) (0)
2009-07-28 【不敗經典】RICOH GR Digital III問世 (36804) (5)
2009-07-23 【這才叫立體感】Fujifilm推出全世界第一台3D相機 - Real 3D W1 (3479) (2)
2009-06-15 【輕巧時尚】Fujifilm Z300美型問世 (6037) (0)
2009-05-24 【開箱】F200 EXR-ISO測試篇 (2681) (2)
2009-05-24 【開箱】F200 EXR-實拍模式篇 (2050) (0)
2009-05-24 【開箱囉】新生代月光小天王~Fuji F200 EXR-外觀篇 (7249) (12)
2009-05-07 【Open將哭哭】第一次投訴小7.. (3718) (2)
2009-04-19 【500D的最佳對手】Nikon D5000發表囉 (3958) (1)
2009-04-06 【夏天是潛水相機的季節】2009潛水相機特輯 (7908) (3)
2009-03-27 【最便宜的可錄影單眼】Canon EOS 500D登場 (6772) (1)
2009-03-27 【G系列福音】Canon 270EX小型閃燈發表 (4058) (0)
2009-03-05 【似曾相似的手法】Sigma DP2露臉曝光 (4020) (2)
2009-02-22 平民旗艦─Philips SHP9000耳機開箱 (20551) (9)
2009-02-20 【機海戰術】Canon IXUS 95、100、110、990 IS混亂報到 (13328) (41)
2009-02-19 【24-70mm L IS落空】Canon推出TS-E 17mm、24mm L移軸鏡 (3266) (1)
2009-02-05 【我愛小F】Fujifilm F200EXR驚喜上市 (25443) (32)
2009-02-03 【超級小鋼砲】Panasonic TZ7/ZS3三月問世 (11505) (4)
2009-01-20 【Wifi…然後呢?】Sony G3無線分享機 (1045) (1)
2009-01-10 【SDHC掰掰】新一代SD格式─SDXC (13599) (2)
2008-12-28 【認臉不認人?】今天~我們來聊聊相機臉部自動對焦 (2241) (0)
2008-12-09 【撿便宜】搶購隨身碟前~還是有東西要注意 (6988) (0)
2008-12-09 【總算來了】Nikon D3x機皇現跡~ (5895) (0)
2008-11-24 【好萊塢惡搞?】繼七龍珠後...聖鬥士也即將拍攝電影版.. (3054) (3)
2008-11-10 【世界奇觀】各國的麥克傑克森 (2872) (2)
2008-10-28 【百萬名車算蝦米】百萬名機~Hasselblad H3DII-50 (12714) (10)
2008-10-20 【開箱】復刻回憶~Sony HandyCam SR11 (6177) (3)
2008-10-13 【工商服務】價格決定位置~Panasonic FX37... (1991) (6)
2008-09-30 【小型機銷售冠軍再出新招】Canon IXUS 870 IS/980 IS (14786) (20)
2008-09-23 【我猜買40G的人一定很幹】Sony PS3 80G~改款低價衝市場!! (2656) (0)
2008-09-18 【消費機皇再進化】Canon Powershot G10 (14842) (5)
2008-09-17 【力挽狂攔】Canon EOS 5D Mark II震撼發表 (16208) (6)
1 234
找更多相關文章與討論